Terminal Aerodrome Forecast
Issued by NWS Des Moines, IA

Home | Current Version | Previous Version | Text Only | Print | Product List | Glossary On
Versions: 1 2 3 4 5 6 7 8 9 10 11 12 13 14 15 16 17 18 19 20 21 22 23 24 25 26 27 28 29 30 31 32 33 34 35 36 37 38 39 40 41 42
000
FTUS43 KDMX 141859 AAA
TAFALO
TAF AMD
KALO 141859Z 1419/1518 14012KT P6SM OVC013
      TEMPO 1419/1421 3SM -SN BLSN
     FM142200 14008KT P6SM BKN011
     FM150700 VRB03KT 3SM BR BKN010
     FM151100 19003KT 2SM BR SCT003 BKN008=

USA.gov is the U.S. government's official web portal to all federal, state and local government web resources and services.